Time;durP1;ratioP1;P1;durP2;ratioP2;P2;SDS_P1;SDS_P2;PMS_P1;PMS_P2;Temp;Humidity;BMP_temperature;BMP_pressure;BME280_temperature;BME280_humidity;BME280_pressure;Samples;Min_cycle;Max_cycle;Signal;HPM_P1;HPM_P2
2023/06/11 00:00:04;;;;;;;2.50;1.75;;;25.80;48.50;;;;;;5034553;28;20044;-63
2023/06/11 00:02:33;;;;;;;2.88;1.95;;;25.80;48.50;;;;;;5034782;28;20029;-63
2023/06/11 00:05:07;;;;;;;2.35;1.90;;;25.80;48.70;;;;;;5034329;28;20574;-65
2023/06/11 00:07:34;;;;;;;3.70;2.30;;;25.80;48.60;;;;;;5032586;28;20021;-67
2023/06/11 00:10:01;;;;;;;2.70;2.20;;;25.80;49.10;;;;;;5035053;28;20037;-66
2023/06/11 00:12:26;;;;;;;2.58;2.10;;;25.90;49.20;;;;;;5033778;28;20032;-68
2023/06/11 00:14:52;;;;;;;3.55;2.20;;;25.90;49.20;;;;;;5034358;28;20029;-67
2023/06/11 00:17:17;;;;;;;2.80;2.10;;;26.00;49.30;;;;;;5037408;28;20025;-65
2023/06/11 00:19:44;;;;;;;2.38;2.15;;;26.00;49.30;;;;;;5034092;28;20021;-67
2023/06/11 00:22:11;;;;;;;2.92;2.22;;;26.00;49.60;;;;;;5033883;28;20022;-67
2023/06/11 00:24:37;;;;;;;2.83;2.30;;;26.00;49.50;;;;;;5038543;28;20083;-65
2023/06/11 00:27:03;;;;;;;4.53;2.50;;;26.00;49.30;;;;;;5018724;28;20030;-66
2023/06/11 00:29:29;;;;;;;3.30;2.30;;;26.10;49.10;;;;;;5036895;28;20033;-65
2023/06/11 00:31:55;;;;;;;3.25;2.50;;;26.10;49.00;;;;;;5019851;28;20036;-65
2023/06/11 00:34:21;;;;;;;3.03;2.45;;;26.10;48.80;;;;;;5039215;28;20680;-67
2023/06/11 00:36:46;;;;;;;2.80;2.30;;;26.10;48.70;;;;;;5037253;28;20136;-65
2023/06/11 00:39:12;;;;;;;3.55;2.55;;;26.10;48.70;;;;;;5036582;28;20104;-65
2023/06/11 00:41:45;;;;;;;2.85;2.42;;;26.20;48.80;;;;;;5035573;28;20095;-66
2023/06/11 00:44:17;;;;;;;3.10;2.30;;;26.20;48.80;;;;;;5033384;28;20038;-65
2023/06/11 00:46:47;;;;;;;3.55;2.70;;;26.20;48.70;;;;;;5036895;28;20017;-65
2023/06/11 00:49:13;;;;;;;2.75;2.17;;;26.20;48.70;;;;;;5036969;28;20041;-65
2023/06/11 00:51:44;;;;;;;2.70;2.20;;;26.20;48.70;;;;;;5039564;28;20021;-64
2023/06/11 00:54:16;;;;;;;2.88;2.30;;;26.20;48.60;;;;;;5006682;28;20033;-65
2023/06/11 00:56:48;;;;;;;3.65;2.33;;;26.30;48.80;;;;;;5034977;28;20453;-66
2023/06/11 00:59:17;;;;;;;2.70;2.40;;;26.30;48.80;;;;;;5035637;28;20032;-65
2023/06/11 01:01:57;;;;;;;2.70;2.30;;;26.30;48.70;;;;;;5033731;28;20033;-65
2023/06/11 01:04:25;;;;;;;4.05;2.20;;;26.30;48.70;;;;;;5036499;28;20030;-65
2023/06/11 01:06:59;;;;;;;2.17;1.70;;;26.30;48.80;;;;;;5020640;28;20485;-66
2023/06/11 01:09:26;;;;;;;2.30;1.77;;;26.40;48.60;;;;;;5019932;28;20033;-65
2023/06/11 01:11:55;;;;;;;2.17;1.90;;;26.40;48.50;;;;;;5039369;28;20026;-66
2023/06/11 01:14:20;;;;;;;2.30;1.80;;;26.40;48.50;;;;;;5035765;28;20509;-66
2023/06/11 01:17:02;;;;;;;2.25;1.80;;;26.30;48.50;;;;;;5036400;28;20025;-65
2023/06/11 01:19:37;;;;;;;2.30;1.80;;;26.30;48.50;;;;;;5022388;28;20032;-65
2023/06/11 01:22:15;;;;;;;2.03;1.70;;;26.40;48.50;;;;;;5036622;28;20488;-66
2023/06/11 01:25:13;;;;;;;2.40;1.70;;;26.40;48.50;;;;;;5039682;28;20029;-65
2023/06/11 01:27:54;;;;;;;2.80;1.90;;;26.40;48.40;;;;;;5036542;28;20025;-65
2023/06/11 01:30:20;;;;;;;2.60;1.77;;;26.30;48.40;;;;;;5033559;28;20782;-66
2023/06/11 01:32:53;;;;;;;2.85;2.05;;;26.30;48.30;;;;;;5029469;28;20061;-65
2023/06/11 01:35:19;;;;;;;2.40;1.88;;;26.40;48.40;;;;;;5020520;28;20033;-65
2023/06/11 01:37:45;;;;;;;2.08;1.70;;;26.40;48.30;;;;;;5036735;28;20048;-66
2023/06/11 01:40:14;;;;;;;2.33;1.90;;;26.30;48.30;;;;;;5038871;28;20017;-66
2023/06/11 01:42:40;;;;;;;2.42;1.92;;;26.40;48.40;;;;;;5033162;28;20387;-65
2023/06/11 01:45:07;;;;;;;2.30;1.65;;;26.30;48.20;;;;;;5003185;28;20065;-66
2023/06/11 01:47:33;;;;;;;2.38;1.80;;;26.30;48.20;;;;;;5041256;28;20021;-65
2023/06/11 01:49:58;;;;;;;2.60;1.90;;;26.30;48.20;;;;;;5024640;28;20036;-66
2023/06/11 01:52:27;;;;;;;2.30;1.80;;;26.30;48.20;;;;;;5032847;28;20034;-65
2023/06/11 01:54:52;;;;;;;2.63;1.70;;;26.30;48.20;;;;;;5035631;28;20484;-65
2023/06/11 01:57:18;;;;;;;2.15;1.75;;;26.30;48.20;;;;;;5037813;28;20140;-66
2023/06/11 01:59:44;;;;;;;2.10;1.80;;;26.30;48.20;;;;;;5035993;28;20028;-66
2023/06/11 02:02:09;;;;;;;2.63;1.90;;;26.30;48.10;;;;;;5035051;28;20029;-65
2023/06/11 02:04:35;;;;;;;2.28;1.70;;;26.30;48.20;;;;;;5039706;28;20037;-65
2023/06/11 02:07:01;;;;;;;2.30;1.88;;;26.30;48.10;;;;;;5036599;28;20119;-66
2023/06/11 02:09:27;;;;;;;2.40;1.90;;;26.30;48.10;;;;;;5039020;28;20105;-66
2023/06/11 02:11:52;;;;;;;2.17;1.80;;;26.30;48.10;;;;;;5037693;28;20112;-66
2023/06/11 02:14:18;;;;;;;2.10;1.80;;;26.30;48.10;;;;;;5019691;28;20028;-65
2023/06/11 02:16:43;;;;;;;2.28;1.80;;;26.30;48.10;;;;;;5038561;28;20033;-66
2023/06/11 02:19:09;;;;;;;1.90;1.70;;;26.30;48.00;;;;;;5039135;28;20112;-66
2023/06/11 02:21:35;;;;;;;2.05;1.75;;;26.30;48.00;;;;;;5038334;28;20103;-66
2023/06/11 02:24:00;;;;;;;2.65;1.88;;;26.30;48.10;;;;;;5035819;28;20034;-66
2023/06/11 02:26:26;;;;;;;2.33;1.80;;;26.30;48.10;;;;;;5034043;28;20049;-66
2023/06/11 02:28:52;;;;;;;2.10;1.60;;;26.30;48.00;;;;;;5033023;28;20536;-66
2023/06/11 02:31:17;;;;;;;2.30;1.70;;;26.30;48.00;;;;;;5033747;28;20448;-66
2023/06/11 02:33:43;;;;;;;2.00;1.63;;;26.20;48.00;;;;;;5037496;28;20029;-65
2023/06/11 02:36:10;;;;;;;2.20;1.77;;;26.20;48.50;;;;;;5036820;28;20028;-65
2023/06/11 02:38:35;;;;;;;2.53;1.70;;;26.20;48.00;;;;;;5033907;28;20021;-65
2023/06/11 02:41:01;;;;;;;2.25;1.90;;;26.20;47.90;;;;;;5017914;28;20111;-65
2023/06/11 02:43:26;;;;;;;2.25;1.88;;;26.20;48.00;;;;;;5036697;28;20128;-66
2023/06/11 02:45:52;;;;;;;2.40;1.70;;;26.20;47.90;;;;;;5000778;28;20116;-66
2023/06/11 02:48:18;;;;;;;2.22;1.80;;;26.20;47.90;;;;;;5034106;28;20040;-65
2023/06/11 02:50:43;;;;;;;2.35;1.80;;;26.20;47.90;;;;;;5037503;28;20124;-66
2023/06/11 02:53:09;;;;;;;2.03;1.70;;;26.20;47.90;;;;;;5036173;28;20469;-65
2023/06/11 02:55:34;;;;;;;2.35;1.80;;;26.20;47.90;;;;;;5031532;28;20030;-66
2023/06/11 02:58:00;;;;;;;2.17;1.52;;;26.20;47.90;;;;;;5036481;28;20025;-66
2023/06/11 03:00:26;;;;;;;2.28;1.70;;;26.10;47.90;;;;;;5034406;28;20057;-66
2023/06/11 03:02:51;;;;;;;2.30;1.80;;;26.20;47.90;;;;;;5035109;28;20112;-65
2023/06/11 03:05:17;;;;;;;2.17;1.67;;;26.10;47.80;;;;;;5039994;28;20138;-65
2023/06/11 03:07:43;;;;;;;2.30;1.85;;;26.10;47.90;;;;;;5037848;28;20542;-65
2023/06/11 03:10:08;;;;;;;1.90;1.60;;;26.10;47.90;;;;;;5037561;28;20926;-65
2023/06/11 03:12:34;;;;;;;2.40;1.80;;;26.10;47.90;;;;;;5035959;28;20041;-65
2023/06/11 03:15:00;;;;;;;2.25;1.60;;;26.10;47.80;;;;;;5021530;28;20028;-66
2023/06/11 03:17:25;;;;;;;2.22;1.73;;;26.10;47.90;;;;;;5036575;28;20036;-66
2023/06/11 03:19:51;;;;;;;1.63;1.40;;;26.10;47.90;;;;;;5032790;28;20626;-66
2023/06/11 03:22:16;;;;;;;2.20;1.60;;;26.10;47.90;;;;;;5035769;28;20140;-65
2023/06/11 03:24:42;;;;;;;2.00;1.60;;;26.10;47.90;;;;;;5036352;28;20480;-65
2023/06/11 03:27:09;;;;;;;2.03;1.52;;;26.10;47.90;;;;;;5033410;28;20373;-65
2023/06/11 03:29:35;;;;;;;2.13;1.67;;;26.10;47.90;;;;;;5034072;28;20021;-66
2023/06/11 03:32:01;;;;;;;2.00;1.70;;;26.10;47.90;;;;;;5035277;28;20040;-65
2023/06/11 03:34:26;;;;;;;2.45;1.70;;;26.10;47.90;;;;;;5035797;28;20065;-65
2023/06/11 03:36:52;;;;;;;2.15;1.77;;;26.10;47.90;;;;;;5039097;28;20021;-66
2023/06/11 03:39:17;;;;;;;2.25;1.80;;;26.00;47.80;;;;;;5034685;28;20036;-65
2023/06/11 03:41:43;;;;;;;1.80;1.30;;;26.00;47.80;;;;;;5038730;28;20158;-65
2023/06/11 03:44:09;;;;;;;2.25;1.70;;;26.10;47.90;;;;;;5037116;28;20033;-65
2023/06/11 03:46:34;;;;;;;2.22;1.60;;;26.10;47.90;;;;;;5002948;28;20137;-66
2023/06/11 03:49:00;;;;;;;2.00;1.50;;;26.00;47.80;;;;;;5035884;28;20025;-66
2023/06/11 03:51:26;;;;;;;1.92;1.60;;;26.00;47.80;;;;;;5035437;28;20032;-65
2023/06/11 03:53:51;;;;;;;2.08;1.50;;;26.00;47.90;;;;;;5034263;28;20090;-65
2023/06/11 03:56:17;;;;;;;1.70;1.40;;;26.00;47.90;;;;;;5034955;28;20033;-66
2023/06/11 03:58:43;;;;;;;2.15;1.77;;;26.00;47.90;;;;;;5035567;28;20025;-65
2023/06/11 04:01:08;;;;;;;2.05;1.65;;;26.00;47.90;;;;;;5031860;28;20036;-65
2023/06/11 04:03:34;;;;;;;1.80;1.50;;;26.00;47.90;;;;;;5035302;28;20083;-65
2023/06/11 04:06:00;;;;;;;1.90;1.60;;;26.00;47.80;;;;;;5018667;28;20382;-65
2023/06/11 04:08:26;;;;;;;2.05;1.63;;;26.00;47.90;;;;;;5018693;28;20493;-66
2023/06/11 04:10:52;;;;;;;1.80;1.50;;;26.00;47.90;;;;;;5033735;28;20026;-65
2023/06/11 04:13:17;;;;;;;1.60;1.42;;;25.90;47.80;;;;;;5038329;28;20408;-65
2023/06/11 04:15:43;;;;;;;2.00;1.55;;;25.90;47.80;;;;;;5033112;28;20052;-65
2023/06/11 04:18:10;;;;;;;1.83;1.50;;;25.90;47.80;;;;;;5017070;28;20392;-65
2023/06/11 04:20:36;;;;;;;2.00;1.50;;;25.90;47.80;;;;;;5035986;28;20018;-65
2023/06/11 04:23:01;;;;;;;2.25;1.60;;;25.90;47.80;;;;;;5032866;28;20384;-65
2023/06/11 04:25:27;;;;;;;1.75;1.42;;;25.90;47.80;;;;;;5035371;28;20033;-66
2023/06/11 04:27:53;;;;;;;2.08;1.50;;;25.90;47.80;;;;;;5035430;28;20124;-65
2023/06/11 04:30:20;;;;;;;2.00;1.60;;;25.90;47.80;;;;;;5019454;28;20433;-65
2023/06/11 04:32:47;;;;;;;2.13;1.50;;;25.90;47.80;;;;;;5031900;28;20423;-66
2023/06/11 04:35:12;;;;;;;1.90;1.60;;;25.90;48.40;;;;;;5035374;28;20451;-65
2023/06/11 04:37:40;;;;;;;1.80;1.42;;;25.90;47.80;;;;;;5032429;28;20036;-65
2023/06/11 04:40:09;;;;;;;2.10;1.60;;;25.90;47.80;;;;;;5033475;28;20492;-65
2023/06/11 04:42:36;;;;;;;;;;;25.90;47.80;;;;;;5035753;28;20043;-65
2023/06/11 04:45:03;;;;;;;1.70;1.40;;;25.90;47.80;;;;;;5033899;28;20423;-66
2023/06/11 04:47:29;;;;;;;2.10;1.50;;;25.90;47.80;;;;;;5035367;28;20040;-66
2023/06/11 04:50:02;;;;;;;1.73;1.50;;;25.90;47.80;;;;;;5032597;28;20039;-66
2023/06/11 04:52:31;;;;;;;1.88;1.40;;;25.80;47.80;;;;;;5031845;28;20061;-65
2023/06/11 04:54:57;;;;;;;2.10;1.60;;;25.80;47.80;;;;;;5036063;28;20489;-65
2023/06/11 04:57:23;;;;;;;2.22;1.63;;;25.80;47.80;;;;;;5030441;28;20029;-65
2023/06/11 04:59:50;;;;;;;2.22;1.70;;;25.80;47.80;;;;;;5035663;28;20028;-66
2023/06/11 05:02:17;;;;;;;2.00;1.50;;;25.80;47.80;;;;;;5031098;28;20056;-65
2023/06/11 05:04:42;;;;;;;1.95;1.45;;;25.80;47.80;;;;;;5031450;28;20116;-65
2023/06/11 05:07:08;;;;;;;2.05;1.58;;;25.80;47.80;;;;;;5033507;28;20529;-65
2023/06/11 05:09:34;;;;;;;2.10;1.60;;;25.80;47.80;;;;;;5035188;28;20036;-66
2023/06/11 05:11:59;;;;;;;1.77;1.40;;;25.80;47.80;;;;;;5030606;28;20211;-65
2023/06/11 05:14:25;;;;;;;1.63;1.40;;;25.80;47.80;;;;;;5015863;28;20026;-65
2023/06/11 05:16:50;;;;;;;1.98;1.48;;;25.80;47.80;;;;;;5015172;28;20018;-66
2023/06/11 05:19:16;;;;;;;1.83;1.50;;;25.80;47.90;;;;;;5038722;28;20504;-66
2023/06/11 05:21:42;;;;;;;1.70;1.42;;;25.80;47.80;;;;;;5020788;28;20022;-65
2023/06/11 05:24:08;;;;;;;2.05;1.60;;;25.80;47.90;;;;;;5035824;28;20033;-66
2023/06/11 05:26:35;;;;;;;1.63;1.30;;;25.80;47.90;;;;;;5020883;28;20085;-65
2023/06/11 05:29:01;;;;;;;1.63;1.33;;;25.80;47.90;;;;;;5037231;28;20499;-66
2023/06/11 05:31:29;;;;;;;1.80;1.48;;;25.80;47.90;;;;;;5033889;28;20031;-65
2023/06/11 05:33:55;;;;;;;2.00;1.50;;;25.80;47.90;;;;;;5039268;28;20680;-66
2023/06/11 05:36:22;;;;;;;1.92;1.60;;;25.80;47.90;;;;;;5036261;28;20167;-66
2023/06/11 05:38:47;;;;;;;1.85;1.55;;;25.70;47.80;;;;;;5014406;28;20392;-66
2023/06/11 05:41:13;;;;;;;1.95;1.50;;;25.70;47.80;;;;;;5040295;28;20026;-65
2023/06/11 05:43:39;;;;;;;1.70;1.48;;;25.80;47.90;;;;;;5036767;28;20147;-65
2023/06/11 05:46:05;;;;;;;1.83;1.33;;;25.70;47.90;;;;;;5035001;28;20498;-65
2023/06/11 05:48:31;;;;;;;1.70;1.38;;;25.70;47.90;;;;;;5035283;28;20115;-65
2023/06/11 05:50:57;;;;;;;1.92;1.50;;;25.80;47.90;;;;;;5037306;28;20140;-65
2023/06/11 05:53:22;;;;;;;1.90;1.50;;;25.70;47.90;;;;;;5033453;28;20097;-65
2023/06/11 05:55:48;;;;;;;1.80;1.40;;;25.70;47.90;;;;;;5039328;28;20033;-66
2023/06/11 05:58:14;;;;;;;1.77;1.38;;;25.70;47.90;;;;;;5019590;28;20017;-66
2023/06/11 06:00:42;;;;;;;2.08;1.60;;;25.70;47.90;;;;;;5021056;28;20349;-66
2023/06/11 06:03:08;;;;;;;1.90;1.50;;;25.70;47.90;;;;;;5037416;28;20033;-66
2023/06/11 06:05:34;;;;;;;2.05;1.70;;;25.70;47.90;;;;;;5035734;28;20404;-65
2023/06/11 06:07:59;;;;;;;2.20;1.60;;;25.70;47.90;;;;;;5014936;28;20044;-65
2023/06/11 06:10:25;;;;;;;1.85;1.50;;;25.70;47.90;;;;;;5037121;28;20503;-66
2023/06/11 06:12:51;;;;;;;2.55;1.70;;;25.70;47.90;;;;;;5034751;28;20338;-66
2023/06/11 06:15:16;;;;;;;2.10;1.63;;;25.70;47.90;;;;;;5036431;28;20036;-66
2023/06/11 06:17:42;;;;;;;2.22;1.60;;;25.70;47.90;;;;;;5036604;28;20453;-66
2023/06/11 06:20:10;;;;;;;2.08;1.60;;;25.70;47.90;;;;;;5039253;28;20388;-66
2023/06/11 06:22:37;;;;;;;2.05;1.52;;;25.70;47.90;;;;;;5020164;28;20030;-65
2023/06/11 06:25:03;;;;;;;1.75;1.58;;;25.70;47.90;;;;;;5016532;28;20099;-66
2023/06/11 06:27:28;;;;;;;2.08;1.60;;;25.70;47.90;;;;;;5021491;28;20477;-65
2023/06/11 06:29:54;;;;;;;1.95;1.60;;;25.70;47.90;;;;;;5037077;28;20100;-66
2023/06/11 06:32:20;;;;;;;2.17;1.70;;;25.70;47.90;;;;;;5034294;28;20515;-65
2023/06/11 06:34:45;;;;;;;2.15;1.77;;;25.70;47.90;;;;;;5019673;28;20041;-65
2023/06/11 06:37:11;;;;;;;1.83;1.40;;;25.70;47.90;;;;;;5036458;28;20136;-66
2023/06/11 06:39:37;;;;;;;1.80;1.45;;;25.70;47.90;;;;;;5034692;28;20116;-66
2023/06/11 06:42:03;;;;;;;2.15;1.63;;;25.60;47.80;;;;;;5038293;28;20579;-66
2023/06/11 06:44:28;;;;;;;1.92;1.60;;;25.60;47.80;;;;;;5024685;28;20613;-65
2023/06/11 06:46:54;;;;;;;2.53;1.80;;;25.60;47.80;;;;;;5036190;28;20032;-65
2023/06/11 06:49:20;;;;;;;2.00;1.50;;;25.60;47.80;;;;;;5037923;28;20801;-65
2023/06/11 06:51:46;;;;;;;2.50;1.70;;;25.60;47.80;;;;;;5020053;28;20038;-66
2023/06/11 06:54:12;;;;;;;2.03;1.55;;;25.60;47.80;;;;;;5019140;28;20025;-65
2023/06/11 06:56:38;;;;;;;1.90;1.50;;;25.60;47.90;;;;;;5035450;28;20492;-65
2023/06/11 06:59:03;;;;;;;2.00;1.55;;;25.60;47.80;;;;;;5035845;28;20462;-66
2023/06/11 07:01:29;;;;;;;1.90;1.60;;;25.60;47.90;;;;;;5035783;28;20338;-66
2023/06/11 07:03:55;;;;;;;2.10;1.60;;;25.60;47.90;;;;;;5033359;28;20044;-66
2023/06/11 07:06:21;;;;;;;1.98;1.58;;;25.60;47.90;;;;;;5037054;28;20105;-66
2023/06/11 07:08:46;;;;;;;2.00;1.60;;;25.60;47.90;;;;;;5032821;28;20029;-66
2023/06/11 07:11:15;;;;;;;2.00;1.60;;;25.60;47.90;;;;;;5034353;28;20033;-66
2023/06/11 07:13:40;;;;;;;1.83;1.40;;;25.60;47.90;;;;;;5037220;28;20136;-66
2023/06/11 07:16:06;;;;;;;1.60;1.42;;;25.60;47.90;;;;;;5037425;28;20128;-66
2023/06/11 07:18:32;;;;;;;2.20;1.80;;;25.60;47.90;;;;;;5034783;28;20024;-66
2023/06/11 07:20:58;;;;;;;2.03;1.60;;;25.60;47.90;;;;;;5035655;28;20052;-65
2023/06/11 07:23:24;;;;;;;2.28;1.83;;;25.60;47.90;;;;;;5037637;28;20056;-66
2023/06/11 07:25:50;;;;;;;2.20;1.80;;;25.60;47.90;;;;;;5038178;28;20033;-66
2023/06/11 07:28:16;;;;;;;2.40;1.80;;;25.60;47.90;;;;;;5019091;28;20059;-67
2023/06/11 07:30:42;;;;;;;2.08;1.70;;;25.60;47.90;;;;;;5038981;28;20026;-66
2023/06/11 07:33:08;;;;;;;1.88;1.58;;;25.60;47.90;;;;;;5033895;28;20435;-66
2023/06/11 07:35:33;;;;;;;2.05;1.60;;;25.60;47.90;;;;;;5035783;28;20533;-66
2023/06/11 07:37:59;;;;;;;2.17;1.60;;;25.50;47.80;;;;;;5034898;28;20021;-67
2023/06/11 07:40:25;;;;;;;2.40;1.83;;;25.60;47.90;;;;;;5036392;28;20096;-66
2023/06/11 07:42:50;;;;;;;2.03;1.70;;;25.60;47.90;;;;;;5037673;28;20053;-65
2023/06/11 07:45:16;;;;;;;2.20;1.70;;;25.60;47.90;;;;;;5034408;28;20041;-66
2023/06/11 07:47:42;;;;;;;2.72;1.80;;;25.60;47.90;;;;;;5035171;28;20037;-66
2023/06/11 07:50:09;;;;;;;2.28;1.70;;;25.50;47.80;;;;;;5031936;28;20036;-66
2023/06/11 07:52:35;;;;;;;2.08;1.70;;;25.60;47.90;;;;;;5035307;28;20021;-66
2023/06/11 07:55:02;;;;;;;2.33;1.70;;;25.50;47.80;;;;;;5034186;28;20037;-66
2023/06/11 07:57:28;;;;;;;1.90;1.63;;;25.60;47.90;;;;;;5033507;28;20060;-65
2023/06/11 07:59:54;;;;;;;2.42;1.70;;;25.60;47.90;;;;;;5016049;28;20076;-66
2023/06/11 08:02:20;;;;;;;2.40;1.85;;;25.60;47.90;;;;;;5037893;28;20388;-66
2023/06/11 08:04:45;;;;;;;2.38;1.90;;;25.50;47.90;;;;;;5031830;28;20468;-66
2023/06/11 08:07:12;;;;;;;2.45;2.00;;;25.50;47.90;;;;;;5034050;28;20032;-66
2023/06/11 08:09:38;;;;;;;1.90;1.65;;;25.50;47.90;;;;;;5020309;28;20052;-66
2023/06/11 08:12:05;;;;;;;1.92;1.70;;;25.50;47.80;;;;;;5038234;28;20061;-66
2023/06/11 08:14:32;;;;;;;2.53;1.95;;;25.50;47.90;;;;;;5017543;28;20029;-65
2023/06/11 08:16:58;;;;;;;1.95;1.60;;;25.50;47.80;;;;;;5033302;28;20027;-65
2023/06/11 08:19:24;;;;;;;2.15;1.70;;;25.50;47.90;;;;;;5017275;28;20171;-66
2023/06/11 08:21:50;;;;;;;2.13;1.67;;;25.50;47.80;;;;;;5033452;28;20483;-66
2023/06/11 08:24:18;;;;;;;2.00;1.63;;;25.50;47.90;;;;;;5017815;28;20457;-66
2023/06/11 08:26:44;;;;;;;2.00;1.70;;;25.50;47.80;;;;;;5036308;28;20025;-66
2023/06/11 08:29:10;;;;;;;2.30;1.88;;;25.50;47.90;;;;;;5036012;28;20102;-66
2023/06/11 08:31:36;;;;;;;2.22;1.77;;;25.50;47.80;;;;;;5019158;28;20091;-66
2023/06/11 08:34:01;;;;;;;2.50;1.85;;;25.50;47.80;;;;;;5016825;28;20032;-66
2023/06/11 08:36:27;;;;;;;1.92;1.50;;;25.50;47.80;;;;;;5032300;28;20033;-65
2023/06/11 08:38:53;;;;;;;2.30;1.70;;;25.50;47.80;;;;;;5035666;28;20407;-66
2023/06/11 08:41:19;;;;;;;2.30;1.90;;;25.50;47.80;;;;;;5036101;28;20454;-66
2023/06/11 08:43:45;;;;;;;2.13;1.83;;;25.50;47.90;;;;;;5019704;28;20111;-65
2023/06/11 08:46:14;;;;;;;2.00;1.60;;;25.50;47.80;;;;;;5034297;28;20517;-65
2023/06/11 08:48:44;;;;;;;2.20;1.70;;;25.50;47.80;;;;;;5035708;28;20434;-66
2023/06/11 08:51:12;;;;;;;2.03;1.60;;;25.50;47.80;;;;;;5007551;28;20034;-66
2023/06/11 08:53:38;;;;;;;2.08;1.67;;;25.50;47.80;;;;;;5039509;28;20380;-66
2023/06/11 08:56:07;;;;;;;2.28;1.90;;;25.50;47.80;;;;;;5040099;28;20034;-66
2023/06/11 08:58:36;;;;;;;2.15;1.77;;;25.50;47.80;;;;;;5039402;28;20570;-66
2023/06/11 09:01:08;;;;;;;2.40;1.80;;;25.50;47.80;;;;;;5036175;28;20049;-65
2023/06/11 09:03:34;;;;;;;2.40;1.75;;;25.50;48.40;;;;;;5018550;28;20108;-66
2023/06/11 09:06:01;;;;;;;2.03;1.60;;;25.50;47.80;;;;;;5021773;28;20535;-65
2023/06/11 09:08:26;;;;;;;2.20;1.70;;;25.50;47.80;;;;;;5020029;28;20045;-65
2023/06/11 09:10:52;;;;;;;2.28;1.77;;;25.50;47.80;;;;;;5039370;28;20114;-66
2023/06/11 09:13:19;;;;;;;2.30;1.80;;;25.50;47.80;;;;;;5039232;28;20038;-66
2023/06/11 09:15:58;;;;;;;2.25;1.70;;;25.50;47.80;;;;;;5036543;28;20029;-65
2023/06/11 09:18:25;;;;;;;2.33;1.77;;;25.50;47.80;;;;;;5035412;28;20499;-66
2023/06/11 09:20:56;;;;;;;2.15;1.70;;;25.50;47.80;;;;;;5039407;28;20025;-65
2023/06/11 09:23:48;;;;;;;2.25;1.70;;;25.50;47.80;;;;;;5036812;28;20140;-65
2023/06/11 09:26:17;;;;;;;1.90;1.52;;;25.50;47.80;;;;;;5030635;28;20451;-66
2023/06/11 09:28:43;;;;;;;;;;;25.50;47.80;;;;;;5036138;28;20025;-66
2023/06/11 09:31:08;;;;;;;2.05;1.80;;;25.50;47.80;;;;;;5038402;28;20386;-66
2023/06/11 09:33:36;;;;;;;1.88;1.60;;;25.50;47.80;;;;;;5017317;28;20052;-65
2023/06/11 09:36:03;;;;;;;2.30;1.85;;;25.40;47.70;;;;;;5035854;28;20048;-66
2023/06/11 09:38:33;;;;;;;2.33;1.65;;;25.40;47.70;;;;;;5035542;28;20029;-66
2023/06/11 09:40:59;;;;;;;1.98;1.60;;;25.50;47.80;;;;;;5038305;28;20109;-66
2023/06/11 09:43:25;;;;;;;2.08;1.67;;;25.50;47.80;;;;;;5034764;28;20034;-65
2023/06/11 09:45:55;;;;;;;2.22;1.63;;;25.50;47.80;;;;;;5036349;28;20432;-66
2023/06/11 09:48:21;;;;;;;2.45;1.70;;;25.40;47.70;;;;;;5019203;28;20507;-65
2023/06/11 09:50:51;;;;;;;2.40;1.70;;;25.40;47.70;;;;;;5034070;28;20026;-66
2023/06/11 09:53:22;;;;;;;2.83;2.10;;;25.40;47.70;;;;;;5036496;28;20116;-65
2023/06/11 09:55:50;;;;;;;2.20;1.80;;;25.40;47.70;;;;;;5035989;28;20918;-66
2023/06/11 09:58:21;;;;;;;2.10;1.63;;;25.50;47.80;;;;;;5037368;28;20538;-66
2023/06/11 10:00:52;;;;;;;2.10;1.77;;;25.50;47.80;;;;;;5020811;28;20018;-65
2023/06/11 10:03:18;;;;;;;2.75;1.83;;;25.40;47.70;;;;;;5036365;28;20455;-65
2023/06/11 10:05:44;;;;;;;2.15;1.70;;;25.50;47.80;;;;;;5001926;28;20040;-65
2023/06/11 10:08:16;;;;;;;2.38;1.70;;;25.40;47.70;;;;;;5003648;28;20038;-66
2023/06/11 10:10:46;;;;;;;1.92;1.67;;;25.50;47.80;;;;;;5035393;28;20033;-66
2023/06/11 10:13:26;;;;;;;2.28;1.80;;;25.40;47.70;;;;;;5035749;28;20032;-66
2023/06/11 10:15:52;;;;;;;2.17;1.70;;;25.40;47.70;;;;;;5020887;28;20588;-66
2023/06/11 10:18:22;;;;;;;2.30;1.80;;;25.40;47.70;;;;;;5038835;28;20036;-66
2023/06/11 10:20:57;;;;;;;2.20;1.80;;;25.40;47.70;;;;;;5035657;28;20033;-66
2023/06/11 10:23:35;;;;;;;2.40;1.92;;;25.40;47.70;;;;;;5037844;28;20093;-65
2023/06/11 10:26:00;;;;;;;2.35;1.80;;;25.40;47.70;;;;;;5035828;28;20053;-65
2023/06/11 10:28:48;;;;;;;2.40;1.85;;;25.40;47.70;;;;;;5036286;28;20053;-65
2023/06/11 10:31:28;;;;;;;2.38;1.90;;;25.40;47.70;;;;;;5036503;28;20039;-66
2023/06/11 10:34:01;;;;;;;2.28;1.80;;;25.40;47.70;;;;;;5032089;28;20030;-66
2023/06/11 10:36:35;;;;;;;2.25;1.88;;;25.40;47.80;;;;;;5035804;28;20460;-66
2023/06/11 10:39:05;;;;;;;1.85;1.55;;;25.40;48.30;;;;;;5037515;28;20393;-66
2023/06/11 10:41:30;;;;;;;2.35;1.90;;;25.50;47.80;;;;;;5036878;28;20032;-66
2023/06/11 10:44:00;;;;;;;1.92;1.65;;;25.40;47.80;;;;;;5037875;28;20038;-65
2023/06/11 10:46:25;;;;;;;;;;;25.40;47.80;;;;;;5034489;28;20108;-66
2023/06/11 10:48:52;;;;;;;2.10;1.65;;;25.40;47.70;;;;;;5016701;28;19996;-65
2023/06/11 10:51:19;;;;;;;2.08;1.70;;;25.40;48.20;;;;;;5032677;28;20020;-66
2023/06/11 10:53:54;;;;;;;1.95;1.60;;;25.40;47.70;;;;;;5034315;28;20067;-66
2023/06/11 10:56:21;;;;;;;2.47;1.80;;;25.50;47.80;;;;;;5019388;28;20029;-66
2023/06/11 10:58:51;;;;;;;2.40;1.80;;;25.50;47.80;;;;;;5019672;28;20022;-66
2023/06/11 11:01:20;;;;;;;2.28;1.58;;;25.50;47.80;;;;;;5038428;28;20500;-65
2023/06/11 11:03:48;;;;;;;2.35;1.90;;;25.40;47.70;;;;;;5031520;28;20408;-66
2023/06/11 11:06:24;;;;;;;2.38;1.73;;;25.50;47.70;;;;;;5033077;28;20040;-66
2023/06/11 11:08:51;;;;;;;2.58;1.80;;;25.40;48.20;;;;;;5033076;28;20052;-65
2023/06/11 11:11:17;;;;;;;2.03;1.70;;;25.50;47.70;;;;;;5036521;28;20025;-65
2023/06/11 11:13:47;;;;;;;2.25;1.80;;;25.50;47.70;;;;;;5035914;28;20026;-66
2023/06/11 11:16:13;;;;;;;2.13;1.77;;;25.40;47.70;;;;;;5004194;28;20167;-66
2023/06/11 11:18:39;;;;;;;2.20;1.80;;;25.40;47.70;;;;;;5038121;28;20036;-65
2023/06/11 11:21:04;;;;;;;1.90;1.60;;;25.50;47.70;;;;;;5032192;28;20033;-65
2023/06/11 11:23:33;;;;;;;2.00;1.60;;;25.50;47.70;;;;;;5035936;28;20022;-66
2023/06/11 11:25:59;;;;;;;1.95;1.60;;;25.40;47.60;;;;;;5036133;28;20057;-65
2023/06/11 11:28:26;;;;;;;2.38;1.90;;;25.40;47.60;;;;;;5033343;28;20064;-66
2023/06/11 11:30:52;;;;;;;2.10;1.67;;;25.40;47.60;;;;;;5035736;28;20502;-66
2023/06/11 11:33:18;;;;;;;2.28;1.90;;;25.40;47.50;;;;;;5037856;28;20083;-65
2023/06/11 11:35:53;;;;;;;2.28;1.80;;;25.50;47.60;;;;;;5039517;28;20465;-65
2023/06/11 11:38:19;;;;;;;2.10;1.73;;;25.50;47.60;;;;;;5037189;28;20026;-66
2023/06/11 11:40:45;;;;;;;2.80;2.00;;;25.40;47.50;;;;;;5039415;28;20013;-66
2023/06/11 11:43:15;;;;;;;2.88;1.90;;;25.40;47.50;;;;;;5029572;28;20041;-66
2023/06/11 11:45:48;;;;;;;2.60;1.83;;;25.50;47.60;;;;;;4991840;28;1082044;-66
2023/06/11 11:48:17;;;;;;;2.30;1.73;;;25.40;48.00;;;;;;5015498;28;20381;-65
2023/06/11 11:50:45;;;;;;;2.22;1.80;;;25.40;47.50;;;;;;5019443;28;20037;-66
2023/06/11 11:53:13;;;;;;;2.30;1.83;;;25.50;47.50;;;;;;5018242;28;20084;-66
2023/06/11 11:55:41;;;;;;;2.22;1.73;;;25.40;47.40;;;;;;5033166;28;20037;-66
2023/06/11 11:58:09;;;;;;;1.85;1.60;;;25.40;47.40;;;;;;5032395;28;20503;-65
2023/06/11 12:00:37;;;;;;;2.25;1.70;;;25.40;47.40;;;;;;5035423;28;20104;-66
2023/06/11 12:03:10;;;;;;;1.98;1.60;;;25.40;47.40;;;;;;5031297;28;20025;-65
2023/06/11 12:05:37;;;;;;;2.28;1.83;;;25.40;47.40;;;;;;5032793;28;20033;-66
2023/06/11 12:08:06;;;;;;;2.20;1.80;;;25.40;47.40;;;;;;5040185;28;20075;-66
2023/06/11 12:10:31;;;;;;;;;;;25.40;47.40;;;;;;5037000;28;20040;-66
2023/06/11 12:12:59;;;;;;;2.40;1.80;;;25.40;47.30;;;;;;5033022;28;20269;-66
2023/06/11 12:15:25;;;;;;;2.17;1.80;;;25.40;47.30;;;;;;5034551;28;20333;-66
2023/06/11 12:17:51;;;;;;;2.22;1.83;;;25.40;47.40;;;;;;5033484;28;20030;-66
2023/06/11 12:20:17;;;;;;;2.72;2.08;;;25.50;47.40;;;;;;5014031;28;20040;-66
2023/06/11 12:22:43;;;;;;;2.03;1.65;;;25.50;47.30;;;;;;5031951;28;20037;-65
2023/06/11 12:25:08;;;;;;;2.30;1.73;;;25.40;47.30;;;;;;5034949;28;20037;-66
2023/06/11 12:27:35;;;;;;;2.10;1.80;;;25.40;47.30;;;;;;5031603;28;20030;-66
2023/06/11 12:30:01;;;;;;;2.50;1.83;;;25.40;47.30;;;;;;5031539;28;20108;-66
2023/06/11 12:32:29;;;;;;;2.22;1.80;;;25.40;47.30;;;;;;5031210;28;20112;-66
2023/06/11 12:34:55;;;;;;;2.17;1.60;;;25.40;47.20;;;;;;5033516;28;20079;-66
2023/06/11 12:37:21;;;;;;;2.28;1.85;;;25.50;47.30;;;;;;5036691;28;20033;-66
2023/06/11 12:39:47;;;;;;;2.20;1.80;;;25.40;47.20;;;;;;5031789;28;20132;-66
2023/06/11 12:42:16;;;;;;;2.47;1.85;;;25.40;47.30;;;;;;5017179;28;20119;-66
2023/06/11 12:44:43;;;;;;;2.60;1.98;;;25.40;47.20;;;;;;5035806;28;20109;-66
2023/06/11 12:47:09;;;;;;;1.90;1.65;;;25.40;47.20;;;;;;5017629;28;20208;-66